Time;durP1;ratioP1;P1;durP2;ratioP2;P2;SDS_P1;SDS_P2;PMS_P1;PMS_P2;Temp;Humidity;BMP_temperature;BMP_pressure;BME280_temperature;BME280_humidity;BME280_pressure;Samples;Min_cycle;Max_cycle;Signal;HPM_P1;HPM_P2
2022/09/11 00:01:15;;;;;;;9.57;8.85;;;;;;;14.38;100.00;101021.88;6054724;23;20369;-73
2022/09/11 00:03:43;;;;;;;7.25;6.65;;;;;;;14.02;100.00;100967.81;6049532;23;20557;-72
2022/09/11 00:06:13;;;;;;;11.30;9.93;;;;;;;14.43;100.00;101038.28;6044665;23;20653;-71
2022/09/11 00:08:41;;;;;;;9.13;8.32;;;;;;;14.39;100.00;101034.13;6057481;23;20022;-70
2022/09/11 00:11:16;;;;;;;11.32;10.30;;;;;;;13.16;100.00;100832.34;6003798;23;20022;-72
2022/09/11 00:13:49;;;;;;;8.68;7.85;;;;;;;14.22;100.00;101025.47;6041606;23;20041;-71
2022/09/11 00:16:25;;;;;;;10.45;9.63;;;;;;;14.29;100.00;101037.38;6052691;23;20015;-71
2022/09/11 00:18:54;;;;;;;8.50;7.80;;;;;;;14.26;100.00;101034.91;6042855;23;20038;-72
2022/09/11 00:21:21;;;;;;;9.23;8.30;;;;;;;14.29;100.00;101040.00;6061039;23;20032;-71
2022/09/11 00:23:50;;;;;;;9.07;8.27;;;;;;;14.27;100.00;101028.69;6043654;23;20661;-73
2022/09/11 00:26:18;;;;;;;9.90;8.93;;;;;;;14.28;100.00;101038.28;6064166;23;20019;-71
2022/09/11 00:28:45;;;;;;;8.75;8.02;;;;;;;14.27;100.00;101044.53;6018596;23;20027;-71
2022/09/11 00:31:15;;;;;;;11.05;10.20;;;;;;;13.06;100.00;100849.66;5998717;23;20090;-70
2022/09/11 00:33:42;;;;;;;8.90;8.20;;;;;;;14.18;100.00;101041.63;6000539;23;20015;-69
2022/09/11 00:36:15;;;;;;;9.50;8.77;;;;;;;14.20;100.00;101053.75;6032575;23;20097;-70
2022/09/11 00:38:42;;;;;;;7.95;7.35;;;;;;;14.09;100.00;101041.25;6022308;23;20034;-72
2022/09/11 00:41:13;;;;;;;10.65;9.82;;;;;;;14.14;100.00;101054.97;6026612;23;20023;-71
2022/09/11 00:44:12;;;;;;;9.85;8.85;;;;;;;14.10;100.00;101053.47;6022142;23;20046;-71
2022/09/11 00:46:46;;;;;;;8.88;8.00;;;;;;;14.12;100.00;101066.59;5960104;23;20108;-73
2022/09/11 00:49:57;;;;;;;12.00;10.77;;;;;;;14.08;100.00;101057.16;6021901;23;20088;-73
2022/09/11 00:52:33;;;;;;;8.68;7.80;;;;;;;14.01;100.00;101082.22;6017606;23;20095;-70
2022/09/11 00:55:13;;;;;;;9.30;8.43;;;;;;;14.06;100.00;101066.97;6037182;23;20073;-71
2022/09/11 00:57:57;;;;;;;9.40;8.48;;;;;;;12.74;100.00;100841.88;6018989;23;20023;-73
2022/09/11 01:00:24;;;;;;;10.38;9.40;;;;;;;13.97;100.00;101055.16;6020923;23;20031;-72
2022/09/11 01:02:53;;;;;;;9.80;8.90;;;;;;;12.77;100.00;100854.03;6030538;23;20030;-70
2022/09/11 01:05:23;;;;;;;10.73;9.70;;;;;;;14.01;100.00;101061.09;6019653;23;20434;-71
2022/09/11 01:07:53;;;;;;;11.50;8.50;;;;;;;13.97;100.00;101065.72;6028104;23;20035;-71
2022/09/11 01:10:35;;;;;;;10.45;9.23;;;;;;;12.68;100.00;100859.84;6025194;23;20019;-71
2022/09/11 01:13:16;;;;;;;10.13;9.23;;;;;;;13.81;100.00;101044.72;6027106;23;20038;-72
2022/09/11 01:15:57;;;;;;;9.75;8.88;;;;;;;13.46;100.00;100989.63;6019990;23;20014;-73
2022/09/11 01:18:59;;;;;;;9.00;8.32;;;;;;;13.89;100.00;101076.75;6033112;23;20515;-72
2022/09/11 01:21:53;;;;;;;10.20;9.15;;;;;;;13.88;100.00;101075.03;6016294;23;20100;-71
2022/09/11 01:24:38;;;;;;;9.38;8.55;;;;;;;13.86;100.00;101078.72;6003254;23;20070;-70
2022/09/11 01:27:24;;;;;;;10.90;9.32;;;;;;;13.85;100.00;101080.53;6016763;23;20089;-71
2022/09/11 01:30:00;;;;;;;12.55;8.63;;;;;;;13.84;100.00;101075.31;6018254;23;20092;-73
2022/09/11 01:32:35;;;;;;;9.90;8.45;;;;;;;13.87;100.00;101083.91;6025400;23;20011;-71
2022/09/11 01:35:11;;;;;;;9.20;8.45;;;;;;;12.71;100.00;100875.47;5993080;23;20015;-71
2022/09/11 01:37:52;;;;;;;8.75;7.63;;;;;;;12.76;100.00;100897.09;6045018;23;20059;-72
2022/09/11 01:40:27;;;;;;;11.20;8.68;;;;;;;14.11;100.00;101091.28;6010489;23;20022;-72
2022/09/11 01:43:02;;;;;;;9.25;8.55;;;;;;;13.91;100.00;101053.75;6028050;23;20456;-70
2022/09/11 01:45:36;;;;;;;10.25;9.00;;;;;;;14.26;100.00;101097.41;6030594;23;20011;-73
2022/09/11 01:48:06;;;;;;;12.25;10.95;;;;;;;13.18;100.00;100920.06;6024693;23;20046;-70
2022/09/11 01:50:37;;;;;;;10.82;9.73;;;;;;;14.07;100.00;101060.72;5997289;23;20021;-72
2022/09/11 01:53:11;;;;;;;10.32;9.43;;;;;;;14.18;100.00;101065.38;6032747;23;20033;-70
2022/09/11 01:55:54;;;;;;;11.13;10.07;;;;;;;14.43;100.00;101104.28;6011303;23;20623;-70
2022/09/11 01:58:29;;;;;;;11.23;10.02;;;;;;;14.45;100.00;101105.03;6023485;23;20098;-69
2022/09/11 02:01:08;;;;;;;10.57;8.85;;;;;;;14.46;100.00;101104.13;6027841;23;20030;-73
2022/09/11 02:03:47;;;;;;;9.88;9.00;;;;;;;14.49;100.00;101104.78;6022442;23;20038;-71
2022/09/11 02:06:29;;;;;;;11.30;9.82;;;;;;;14.27;100.00;101062.13;6021675;23;20661;-71
2022/09/11 02:09:01;;;;;;;10.77;9.68;;;;;;;14.52;100.00;101130.97;6038002;23;20019;-72
2022/09/11 02:11:32;;;;;;;10.70;9.55;;;;;;;13.39;100.00;100948.78;6028284;23;20014;-71
2022/09/11 02:14:37;;;;;;;11.05;9.93;;;;;;;14.54;100.00;101110.59;6036638;23;20098;-72
2022/09/11 02:17:24;;;;;;;10.25;9.10;;;;;;;14.56;100.00;101123.75;6029346;23;20031;-72
2022/09/11 02:19:53;;;;;;;10.25;9.30;;;;;;;14.28;100.00;101079.69;6005448;23;20014;-70
2022/09/11 02:22:19;;;;;;;11.02;9.98;;;;;;;14.46;100.00;101104.13;6022654;23;20011;-70
2022/09/11 02:24:46;;;;;;;12.35;9.52;;;;;;;14.60;100.00;101122.63;6037132;23;20074;-72
2022/09/11 02:27:18;;;;;;;14.85;11.73;;;;;;;14.47;100.00;101100.50;6031297;23;20555;-71
2022/09/11 02:29:44;;;;;;;12.05;9.93;;;;;;;14.46;100.00;101097.03;5999939;23;20039;-73
2022/09/11 02:32:11;;;;;;;11.98;10.85;;;;;;;13.42;100.00;100930.13;6024176;23;20038;-71
2022/09/11 02:34:41;;;;;;;10.63;9.30;;;;;;;14.64;100.00;101123.28;5995770;23;20022;-72
2022/09/11 02:37:39;;;;;;;12.48;11.25;;;;;;;14.65;100.00;101132.88;5986808;23;20027;-71
2022/09/11 02:40:30;;;;;;;10.60;9.40;;;;;;;14.62;100.00;101126.00;6010557;23;20409;-72
2022/09/11 02:43:22;;;;;;;15.27;10.88;;;;;;;14.58;100.00;101121.03;6030931;23;20019;-71
2022/09/11 02:46:06;;;;;;;15.30;11.65;;;;;;;14.35;100.00;101081.00;6026933;23;20652;-70
2022/09/11 02:48:34;;;;;;;11.20;9.90;;;;;;;14.67;100.00;101129.22;6000068;23;20019;-72
2022/09/11 02:51:33;;;;;;;12.85;10.70;;;;;;;14.69;100.00;101135.28;6047575;23;20086;-71
2022/09/11 02:54:31;;;;;;;19.40;8.82;;;;;;;14.69;100.00;101137.91;6020949;23;20023;-75
2022/09/11 02:57:12;;;;;;;13.43;10.45;;;;;;;14.22;100.00;101058.94;6001323;23;20011;-72
2022/09/11 02:59:50;;;;;;;13.48;10.98;;;;;;;14.70;100.00;101144.88;5996519;23;20029;-73
2022/09/11 03:02:17;;;;;;;14.95;11.88;;;;;;;14.65;100.00;101136.38;6033727;23;20042;-72
2022/09/11 03:04:44;;;;;;;13.43;10.15;;;;;;;13.67;100.00;100969.03;6029100;23;20019;-70
2022/09/11 03:07:11;;;;;;;14.88;11.57;;;;;;;14.71;100.00;101143.06;6036436;23;20023;-72
2022/09/11 03:09:38;;;;;;;11.23;10.10;;;;;;;13.35;100.00;100936.72;6027301;23;20022;-72
2022/09/11 03:12:04;;;;;;;13.60;10.45;;;;;;;14.65;100.00;101125.81;6023624;23;20421;-72
2022/09/11 03:14:31;;;;;;;12.50;11.20;;;;;;;14.66;100.00;101131.97;6040318;23;20030;-73
2022/09/11 03:16:57;;;;;;;19.00;10.95;;;;;;;14.72;100.00;101137.69;6028414;23;20030;-73
2022/09/11 03:19:24;;;;;;;12.95;11.25;;;;;;;14.50;100.00;101106.47;6025198;23;20485;-72
2022/09/11 03:21:50;;;;;;;15.18;11.40;;;;;;;14.62;100.00;101133.94;6030850;23;20038;-71
2022/09/11 03:24:17;;;;;;;13.80;12.18;;;;;;;14.73;100.00;101160.56;6025018;23;20322;-73
2022/09/11 03:26:43;;;;;;;20.88;12.13;;;;;;;14.60;100.00;101130.53;6032763;23;20072;-73
2022/09/11 03:29:11;;;;;;;11.43;10.30;;;;;;;14.71;100.00;101162.44;6037026;23;20026;-72
2022/09/11 03:31:37;;;;;;;14.98;10.60;;;;;;;14.72;100.00;101156.19;6053807;23;20618;-71
2022/09/11 03:34:05;;;;;;;12.05;10.77;;;;;;;14.05;100.00;101041.50;6063008;23;20469;-71
2022/09/11 03:36:33;;;;;;;14.90;10.45;;;;;;;13.74;100.00;100991.47;6050436;23;20080;-72
2022/09/11 03:39:00;;;;;;;17.33;11.73;;;;;;;13.39;100.00;100964.59;6034486;23;20026;-71
2022/09/11 03:41:27;;;;;;;13.98;12.38;;;;;;;14.42;100.00;101118.44;6028001;23;20637;-72
2022/09/11 03:43:54;;;;;;;11.35;10.02;;;;;;;14.65;100.00;101159.31;6067910;23;20030;-72
2022/09/11 03:46:20;;;;;;;13.18;11.80;;;;;;;14.47;100.00;101132.19;6050375;23;20006;-73
2022/09/11 03:48:47;;;;;;;15.52;11.23;;;;;;;14.69;100.00;101166.09;6030295;23;20010;-71
2022/09/11 03:51:14;;;;;;;15.57;10.80;;;;;;;14.50;100.00;101130.22;6052904;23;20035;-73
2022/09/11 03:53:41;;;;;;;24.15;11.95;;;;;;;14.71;100.00;101162.44;6053550;23;20031;-73
2022/09/11 03:56:09;;;;;;;21.42;12.90;;;;;;;14.62;100.00;101149.78;6052075;23;20030;-73
2022/09/11 03:58:35;;;;;;;22.52;10.95;;;;;;;14.72;100.00;101187.06;6041339;23;20033;-72
2022/09/11 04:01:11;;;;;;;17.38;10.68;;;;;;;13.53;100.00;100988.34;6052354;23;20022;-72
2022/09/11 04:03:38;;;;;;;17.08;11.10;;;;;;;14.74;100.00;101164.88;6072923;23;20669;-71
2022/09/11 04:06:06;;;;;;;19.08;11.52;;;;;;;14.72;100.00;101160.63;6045949;23;20048;-73
2022/09/11 04:08:35;;;;;;;14.18;10.63;;;;;;;14.71;100.00;101173.00;6052357;23;20818;-72
2022/09/11 04:11:04;;;;;;;18.85;13.68;;;;;;;14.58;100.00;101153.56;6031731;23;20053;-72
2022/09/11 04:13:36;;;;;;;14.85;11.32;;;;;;;13.84;100.00;101030.47;6057183;23;20084;-71
2022/09/11 04:16:10;;;;;;;12.77;11.07;;;;;;;14.71;100.00;101170.38;6054956;23;20091;-73
2022/09/11 04:18:38;;;;;;;14.18;10.35;;;;;;;14.72;100.00;101168.56;6046721;23;20038;-73
2022/09/11 04:21:11;;;;;;;17.30;11.85;;;;;;;14.50;100.00;101145.22;6029755;23;20029;-72
2022/09/11 04:23:38;;;;;;;;;;;;;;;14.69;100.00;101172.25;6053940;23;20614;-70
2022/09/11 04:26:15;;;;;;;17.13;11.80;;;;;;;14.64;100.00;101170.84;6049553;23;19906;-74
2022/09/11 04:28:42;;;;;;;15.57;10.57;;;;;;;14.65;100.00;101173.34;6046975;23;20079;-72
2022/09/11 04:31:09;;;;;;;19.27;14.55;;;;;;;14.53;100.00;101156.47;6025830;23;20137;-72
2022/09/11 04:33:36;;;;;;;17.08;12.55;;;;;;;13.42;100.00;100972.31;6014264;23;20018;-72
2022/09/11 04:36:07;;;;;;;20.02;11.55;;;;;;;14.62;100.00;101175.34;6057668;23;20562;-71
2022/09/11 04:38:33;;;;;;;13.40;10.60;;;;;;;14.62;100.00;101172.72;6050153;23;20034;-72
2022/09/11 04:41:01;;;;;;;13.85;9.93;;;;;;;13.44;100.00;100988.03;6029349;23;20030;-73
2022/09/11 04:43:37;;;;;;;19.20;12.00;;;;;;;14.56;100.00;101174.78;6050703;23;20026;-72
2022/09/11 04:46:05;;;;;;;18.88;11.68;;;;;;;14.57;100.00;101180.91;6021977;23;20041;-71
2022/09/11 04:48:32;;;;;;;15.32;11.30;;;;;;;14.06;100.00;101094.19;6014655;23;20015;-72
2022/09/11 04:51:04;;;;;;;17.73;11.02;;;;;;;14.59;100.00;101186.09;6050081;23;20028;-72
2022/09/11 04:53:32;;;;;;;18.42;12.30;;;;;;;14.55;100.00;101180.13;6056403;23;20029;-75
2022/09/11 04:56:05;;;;;;;18.33;11.95;;;;;;;14.58;100.00;101179.97;6033739;23;20007;-72
2022/09/11 04:58:32;;;;;;;18.08;13.05;;;;;;;13.12;100.00;100978.41;6029831;23;20035;-70
2022/09/11 05:00:59;;;;;;;14.73;11.25;;;;;;;14.48;100.00;101192.03;6047865;23;20061;-73
2022/09/11 05:03:28;;;;;;;14.93;11.30;;;;;;;14.39;100.00;101187.28;6038470;23;20015;-73
2022/09/11 05:05:55;;;;;;;12.25;9.65;;;;;;;13.43;100.00;101044.31;6056156;23;20027;-71
2022/09/11 05:08:25;;;;;;;13.25;11.32;;;;;;;14.26;100.00;101164.25;6019660;23;20412;-70
2022/09/11 05:10:52;;;;;;;13.48;10.77;;;;;;;14.28;100.00;101172.09;6050895;23;20034;-69
2022/09/11 05:13:18;;;;;;;12.73;11.30;;;;;;;13.06;100.00;100970.88;6019772;23;20052;-72
2022/09/11 05:15:45;;;;;;;19.73;11.98;;;;;;;14.43;100.00;101202.00;6041253;23;20022;-70
2022/09/11 05:18:12;;;;;;;11.77;10.30;;;;;;;14.46;100.00;101210.59;6017250;23;20026;-70
2022/09/11 05:20:39;;;;;;;16.25;10.75;;;;;;;14.47;100.00;101212.31;6051062;23;20076;-70
2022/09/11 05:23:06;;;;;;;14.02;11.75;;;;;;;14.49;100.00;101209.53;6027264;23;20038;-70
2022/09/11 05:25:32;;;;;;;14.38;10.32;;;;;;;13.88;100.00;101104.06;6050305;23;20620;-69
2022/09/11 05:27:59;;;;;;;14.40;10.63;;;;;;;14.49;100.00;101209.53;6032844;23;20078;-71
2022/09/11 05:30:27;;;;;;;15.18;10.95;;;;;;;14.58;100.00;101224.03;6052110;23;20026;-70
2022/09/11 05:32:54;;;;;;;17.83;10.18;;;;;;;13.24;100.00;101008.47;6062432;23;20034;-71
2022/09/11 05:35:23;;;;;;;11.57;10.48;;;;;;;14.63;100.00;101224.59;6045346;23;20076;-73
2022/09/11 05:37:54;;;;;;;17.80;12.20;;;;;;;14.52;100.00;101223.41;6050845;23;20018;-73
2022/09/11 05:40:20;;;;;;;11.88;9.90;;;;;;;13.50;100.00;101049.16;6046776;23;20387;-71
2022/09/11 05:42:47;;;;;;;15.65;11.95;;;;;;;14.63;100.00;101243.94;6047091;23;20127;-71
2022/09/11 05:45:15;;;;;;;14.65;11.93;;;;;;;14.67;100.00;101242.81;6056307;23;20606;-69
2022/09/11 05:47:42;;;;;;;13.30;10.48;;;;;;;14.67;100.00;101245.47;6057121;23;20026;-71
2022/09/11 05:50:08;;;;;;;16.17;13.30;;;;;;;14.45;100.00;101202.75;6058981;23;20087;-70
2022/09/11 05:52:35;;;;;;;12.85;10.70;;;;;;;14.43;100.00;101204.63;6046869;23;20054;-71
2022/09/11 05:55:01;;;;;;;14.63;11.52;;;;;;;14.73;100.00;101255.66;6053995;23;20014;-72
2022/09/11 05:57:28;;;;;;;12.95;10.95;;;;;;;14.24;100.00;101195.19;6056799;23;20015;-69
2022/09/11 05:59:54;;;;;;;15.77;11.50;;;;;;;13.33;100.00;101029.06;6055560;23;20002;-69
2022/09/11 06:02:21;;;;;;;15.90;12.55;;;;;;;14.82;100.00;101266.59;6028570;23;20018;-71
2022/09/11 06:04:47;;;;;;;17.33;11.40;;;;;;;14.83;100.00;101263.84;6049211;23;20088;-70
2022/09/11 06:07:14;;;;;;;13.00;10.60;;;;;;;14.86;100.00;101265.47;6056057;23;20026;-70
2022/09/11 06:09:40;;;;;;;14.95;11.00;;;;;;;14.83;100.00;101265.66;6046086;23;20592;-73
2022/09/11 06:12:10;;;;;;;16.42;11.40;;;;;;;14.76;100.00;101287.16;6042912;23;20091;-72
2022/09/11 06:14:37;;;;;;;15.45;10.80;;;;;;;14.76;100.00;101273.94;6050055;23;20010;-70
2022/09/11 06:17:05;;;;;;;18.83;12.50;;;;;;;14.84;100.00;101275.28;6055282;23;20121;-68
2022/09/11 06:19:31;;;;;;;17.25;11.65;;;;;;;14.89;100.00;101270.56;6054316;23;20023;-70
2022/09/11 06:21:58;;;;;;;22.38;10.88;;;;;;;14.93;100.00;101264.16;6005834;23;20022;-70
2022/09/11 06:24:24;;;;;;;13.57;11.07;;;;;;;14.75;100.00;101232.63;6053840;23;20034;-71
2022/09/11 06:26:51;;;;;;;13.98;11.25;;;;;;;14.82;100.00;101246.31;6053742;23;20630;-71
2022/09/11 06:29:18;;;;;;;22.70;13.40;;;;;;;14.92;100.00;101265.09;6053701;23;20030;-70
2022/09/11 06:31:46;;;;;;;16.10;10.85;;;;;;;14.86;100.00;101257.56;6053618;23;20050;-69
2022/09/11 06:34:12;;;;;;;17.75;13.88;;;;;;;15.06;100.00;101272.19;6062718;23;20033;-69
2022/09/11 06:36:39;;;;;;;21.58;10.23;;;;;;;15.06;100.00;101275.66;6057861;23;20113;-69
2022/09/11 06:39:05;;;;;;;12.60;11.15;;;;;;;15.14;100.00;101283.13;6055781;23;20083;-70
2022/09/11 06:41:32;;;;;;;16.48;11.50;;;;;;;15.11;100.00;101284.19;6038530;23;20002;-71
2022/09/11 06:43:58;;;;;;;15.30;9.63;;;;;;;15.10;100.00;101284.25;6063797;23;20026;-72
2022/09/11 06:46:25;;;;;;;14.20;10.77;;;;;;;14.15;100.00;101127.97;6055823;23;20874;-70
2022/09/11 06:48:52;;;;;;;16.13;11.25;;;;;;;15.06;100.00;101272.19;6056832;23;20030;-71
2022/09/11 06:51:20;;;;;;;13.93;11.25;;;;;;;15.17;100.00;101306.72;6045826;23;20161;-70
2022/09/11 06:53:47;;;;;;;10.70;9.50;;;;;;;15.18;100.00;101307.59;6051423;23;20026;-70
2022/09/11 06:56:16;;;;;;;13.88;10.77;;;;;;;15.24;100.00;101308.06;6049036;23;20034;-71
2022/09/11 06:58:44;;;;;;;14.13;10.32;;;;;;;14.69;100.00;101217.16;6054339;23;20034;-71
2022/09/11 07:01:11;;;;;;;12.85;11.50;;;;;;;15.24;100.00;101304.56;6058198;23;20034;-71
2022/09/11 07:03:43;;;;;;;14.23;10.15;;;;;;;15.02;100.00;101273.31;6050543;23;20740;-71
2022/09/11 07:06:11;;;;;;;16.95;12.85;;;;;;;15.15;100.00;101309.47;6052304;23;20580;-71
2022/09/11 07:08:38;;;;;;;16.05;10.55;;;;;;;15.02;100.00;101286.53;6054503;23;20675;-70
2022/09/11 07:11:06;;;;;;;15.13;12.93;;;;;;;15.18;100.00;101313.72;6044167;23;20104;-71
2022/09/11 07:13:33;;;;;;;11.00;9.52;;;;;;;15.23;100.00;101316.06;6061164;23;20034;-70
2022/09/11 07:16:06;;;;;;;13.07;11.45;;;;;;;15.21;100.00;101315.31;6047451;23;20290;-70
2022/09/11 07:18:41;;;;;;;13.32;10.15;;;;;;;15.20;100.00;101334.78;6054148;23;20026;-69
2022/09/11 07:21:15;;;;;;;13.57;11.80;;;;;;;15.19;100.00;101314.56;6019894;23;20629;-70
2022/09/11 07:23:47;;;;;;;15.65;10.63;;;;;;;15.27;100.00;101307.84;6049667;23;20476;-71
2022/09/11 07:26:16;;;;;;;13.80;11.25;;;;;;;15.27;100.00;101310.50;6062065;23;20087;-71
2022/09/11 07:28:43;;;;;;;15.40;8.95;;;;;;;15.25;100.00;101304.44;6034948;23;20326;-69
2022/09/11 07:31:13;;;;;;;15.38;11.93;;;;;;;15.32;100.00;101311.06;6045633;23;20022;-70
2022/09/11 07:33:47;;;;;;;14.10;10.75;;;;;;;15.38;100.00;101331.00;6051922;23;20024;-69
2022/09/11 07:36:16;;;;;;;12.55;11.30;;;;;;;15.45;100.00;101321.72;6006984;23;20054;-70
2022/09/11 07:38:44;;;;;;;20.48;11.60;;;;;;;15.45;100.00;101329.66;6058751;23;20104;-71
2022/09/11 07:41:13;;;;;;;13.43;9.32;;;;;;;15.45;100.00;101320.88;6037685;23;20039;-71
2022/09/11 07:43:49;;;;;;;13.10;10.45;;;;;;;15.51;100.00;101333.72;6059916;23;20352;-70
2022/09/11 07:46:16;;;;;;;15.10;9.73;;;;;;;15.59;100.00;101327.94;6049288;23;20022;-71
2022/09/11 07:48:43;;;;;;;16.85;11.00;;;;;;;15.52;100.00;101295.75;6036203;23;20426;-71
2022/09/11 07:51:12;;;;;;;15.32;11.32;;;;;;;15.69;100.00;101323.75;6047454;23;20027;-71
2022/09/11 07:53:44;;;;;;;11.63;10.18;;;;;;;15.67;100.00;101326.50;6063168;23;20044;-70
2022/09/11 07:56:17;;;;;;;14.50;10.70;;;;;;;15.82;100.00;101337.13;6030394;23;20029;-69
2022/09/11 07:58:44;;;;;;;14.07;10.25;;;;;;;15.84;100.00;101344.00;6067770;23;20026;-70
2022/09/11 08:01:16;;;;;;;19.50;12.90;;;;;;;15.84;100.00;101341.34;6061715;23;20034;-72
2022/09/11 08:03:43;;;;;;;15.30;9.87;;;;;;;15.75;100.00;101342.81;6049017;23;20022;-69
2022/09/11 08:06:14;;;;;;;15.63;12.38;;;;;;;15.67;100.00;101336.25;6052255;23;20366;-70
2022/09/11 08:08:51;;;;;;;18.95;11.20;;;;;;;15.80;100.00;101347.78;6043440;23;20664;-70
2022/09/11 08:11:17;;;;;;;18.33;13.35;;;;;;;15.88;100.00;101348.16;6048844;23;20084;-68
2022/09/11 08:13:52;;;;;;;26.02;12.38;;;;;;;15.72;100.00;101363.28;6026586;23;20116;-71
2022/09/11 08:16:21;;;;;;;15.23;11.02;;;;;;;14.43;100.00;101126.25;6054594;23;20018;-70
2022/09/11 08:18:47;;;;;;;13.60;11.38;;;;;;;15.80;100.00;101374.25;6037603;23;20022;-70
2022/09/11 08:21:15;;;;;;;14.13;11.35;;;;;;;14.50;100.00;101145.22;6050267;23;20035;-70
2022/09/11 08:23:43;;;;;;;17.10;11.57;;;;;;;15.77;100.00;101363.00;6032820;23;20027;-70
2022/09/11 08:26:10;;;;;;;15.23;12.68;;;;;;;15.77;100.00;101369.16;6012584;23;20076;-70
2022/09/11 08:28:38;;;;;;;19.15;12.68;;;;;;;15.73;100.00;101354.41;6029092;23;20083;-70
2022/09/11 08:31:05;;;;;;;18.80;13.77;;;;;;;15.63;100.00;101330.28;5995186;23;20777;-70
2022/09/11 08:33:32;;;;;;;14.77;10.88;;;;;;;15.98;100.00;101374.03;6000424;23;20015;-70
2022/09/11 08:36:01;;;;;;;12.32;10.13;;;;;;;15.89;100.00;101378.94;6024769;23;20029;-72
2022/09/11 08:38:28;;;;;;;12.30;9.98;;;;;;;15.99;100.00;101379.22;5990799;23;20416;-70
2022/09/11 08:41:08;;;;;;;22.17;17.13;;;;;;;15.10;100.00;101189.94;5934272;23;20390;-71
2022/09/11 08:43:37;;;;;;;15.57;10.82;;;;;;;16.41;100.00;101377.38;6027305;23;20077;-70
2022/09/11 08:46:08;;;;;;;11.13;9.82;;;;;;;15.34;100.00;101182.22;6020019;23;20122;-70
2022/09/11 08:48:48;;;;;;;16.42;10.93;;;;;;;16.34;100.00;101310.72;6025504;23;20007;-69
2022/09/11 08:51:17;;;;;;;16.00;11.82;;;;;;;17.08;100.00;101385.28;6010847;23;20027;-70
2022/09/11 08:53:44;;;;;;;13.27;9.63;;;;;;;16.88;100.00;101324.81;6014597;23;20015;-70
2022/09/11 08:56:17;;;;;;;14.60;12.68;;;;;;;17.46;100.00;101384.41;6018738;23;20023;-70
2022/09/11 08:58:46;;;;;;;;;;;;;;;17.42;100.00;101380.28;6020079;23;20019;-72
2022/09/11 09:01:56;;;;;;;14.35;11.43;;;;;;;17.49;100.00;101383.34;6023279;23;19923;-70
2022/09/11 09:04:45;;;;;;;18.98;9.98;;;;;;;17.31;100.00;101382.84;6016313;23;20034;-70
2022/09/11 09:07:20;;;;;;;12.85;11.48;;;;;;;17.64;100.00;101398.19;6009798;23;20541;-71
2022/09/11 09:09:52;;;;;;;10.93;9.80;;;;;;;17.76;100.00;101401.78;6024938;23;20033;-72
2022/09/11 09:12:31;;;;;;;17.95;11.38;;;;;;;17.81;100.00;101394.34;6017120;23;20019;-71
2022/09/11 09:15:18;;;;;;;15.20;10.35;;;;;;;17.85;100.00;101397.66;6004530;23;20038;-71
2022/09/11 09:18:02;;;;;;;10.77;8.70;;;;;;;18.00;100.00;101398.34;6023121;23;20024;-70
2022/09/11 09:20:33;;;;;;;15.18;9.65;;;;;;;17.93;100.00;101380.19;6022362;23;20019;-71
2022/09/11 09:23:05;;;;;;;16.08;11.15;;;;;;;17.88;100.00;101390.31;6030333;23;20018;-71
2022/09/11 09:25:38;;;;;;;13.18;10.25;;;;;;;16.83;100.00;101213.78;6023134;23;20058;-71
2022/09/11 09:28:38;;;;;;;11.90;10.48;;;;;;;17.73;100.00;101372.78;6024773;23;20089;-72
2022/09/11 09:31:09;;;;;;;11.88;10.40;;;;;;;17.95;100.00;101411.97;5997230;23;20027;-71
2022/09/11 09:33:57;;;;;;;15.45;9.95;;;;;;;17.84;100.00;101414.53;6025528;23;20024;-70
2022/09/11 09:36:31;;;;;;;10.98;9.88;;;;;;;17.59;100.00;101420.72;6023883;23;20023;-70
2022/09/11 09:38:58;;;;;;;15.38;11.10;;;;;;;17.44;100.00;101407.56;6023252;23;20030;-70
2022/09/11 09:41:51;;;;;;;10.60;9.50;;;;;;;17.57;100.00;101426.13;6031678;23;20038;-72
2022/09/11 09:44:42;;;;;;;12.07;10.85;;;;;;;17.60;100.00;101430.34;6018912;23;20011;-71
2022/09/11 09:47:13;;;;;;;14.10;9.88;;;;;;;16.71;100.00;101259.66;6021508;23;20090;-73
2022/09/11 09:49:40;;;;;;;14.70;10.32;;;;;;;16.63;100.00;101241.63;6040790;23;20030;-71
2022/09/11 09:52:25;;;;;;;12.73;9.18;;;;;;;17.97;100.00;101433.09;6048338;23;20026;-70
2022/09/11 09:55:12;;;;;;;15.30;10.52;;;;;;;17.83;100.00;101426.97;6020125;23;20056;-69
2022/09/11 09:57:38;;;;;;;15.48;11.07;;;;;;;17.47;100.00;101383.44;6031861;23;20193;-72
2022/09/11 10:00:14;;;;;;;20.17;11.68;;;;;;;17.78;100.00;101418.47;6031563;23;20531;-70
2022/09/11 10:02:55;;;;;;;12.23;10.73;;;;;;;17.99;100.00;101428.53;6030833;23;20022;-71
2022/09/11 10:05:40;;;;;;;14.98;11.02;;;;;;;17.82;100.00;101425.25;6024126;23;20021;-70
2022/09/11 10:08:30;;;;;;;16.42;12.10;;;;;;;17.93;100.00;101425.34;6038143;23;20107;-69
2022/09/11 10:11:00;;;;;;;17.50;11.02;;;;;;;17.66;100.00;101390.09;6035010;23;20019;-71
2022/09/11 10:13:32;;;;;;;17.40;10.40;;;;;;;16.60;100.00;101238.34;6000834;23;20026;-71
2022/09/11 10:16:02;;;;;;;16.75;10.50;;;;;;;17.77;100.00;101431.84;6031161;23;20022;-72
2022/09/11 10:18:29;;;;;;;16.77;10.68;;;;;;;17.67;100.00;101434.28;6037979;23;20015;-72
2022/09/11 10:21:11;;;;;;;12.70;10.60;;;;;;;17.64;100.00;101445.09;6039417;23;20027;-71
2022/09/11 10:23:45;;;;;;;17.13;10.82;;;;;;;17.61;100.00;101434.72;6032181;23;20679;-71
2022/09/11 10:26:23;;;;;;;14.65;11.52;;;;;;;17.80;100.00;101455.50;6033859;23;20038;-71
2022/09/11 10:28:55;;;;;;;18.85;10.63;;;;;;;18.02;100.00;101439.78;6034935;23;20575;-71
2022/09/11 10:31:21;;;;;;;16.47;10.67;;;;;;;18.08;100.00;101422.53;6025940;23;20034;-71
2022/09/11 10:33:55;;;;;;;13.15;10.43;;;;;;;17.26;100.00;101260.25;6024703;23;20019;-70
2022/09/11 10:36:26;;;;;;;13.45;9.82;;;;;;;18.63;100.00;101439.75;5983236;23;20023;-70
2022/09/11 10:38:54;;;;;;;14.30;11.00;;;;;;;18.80;100.00;101443.00;6034683;23;20010;-70
2022/09/11 10:41:23;;;;;;;12.48;10.63;;;;;;;18.70;100.00;101429.50;6007758;23;20087;-69
2022/09/11 10:44:02;;;;;;;13.18;10.40;;;;;;;18.69;100.00;101402.06;6022752;23;20023;-69
2022/09/11 10:46:31;;;;;;;14.48;10.35;;;;;;;18.90;100.00;101433.34;6027035;23;20017;-70
2022/09/11 10:49:19;;;;;;;11.23;10.10;;;;;;;19.21;100.00;101417.72;6023497;23;20030;-72
2022/09/11 10:52:07;;;;;;;13.25;10.27;;;;;;;19.29;100.00;101429.47;6032040;23;20269;-70
2022/09/11 10:54:52;;;;;;;14.05;10.68;;;;;;;19.48;100.00;101441.34;6025217;23;20025;-68
2022/09/11 10:57:30;;;;;;;13.85;11.35;;;;;;;19.27;100.00;101430.56;6033921;23;20035;-71
2022/09/11 11:00:08;;;;;;;13.63;9.75;;;;;;;19.16;100.00;101417.22;6030984;23;20619;-71
2022/09/11 11:02:41;;;;;;;14.27;10.68;;;;;;;19.22;100.00;101436.22;6013600;23;20015;-71
2022/09/11 11:05:25;;;;;;;17.42;10.98;;;;;;;19.31;100.00;101429.34;5983143;23;20054;-70
2022/09/11 11:07:55;;;;;;;12.27;9.32;;;;;;;19.71;100.00;101431.59;6035276;23;20034;-69
2022/09/11 11:10:36;;;;;;;13.70;10.15;;;;;;;19.99;100.00;101432.06;6030729;23;20078;-69
2022/09/11 11:13:38;;;;;;;10.55;9.20;;;;;;;20.41;100.00;101429.53;6045912;23;20030;-71
2022/09/11 11:16:26;;;;;;;17.60;10.38;;;;;;;21.00;100.00;101430.88;6028827;23;20103;-70
2022/09/11 11:19:13;;;;;;;13.10;10.07;;;;;;;21.25;100.00;101430.47;6045822;23;20052;-70
2022/09/11 11:22:11;;;;;;;11.57;9.75;;;;;;;21.24;100.00;101428.75;6022952;23;20053;-74
2022/09/11 11:24:52;;;;;;;11.25;9.68;;;;;;;21.38;100.00;101421.41;6029920;23;20653;-70
2022/09/11 11:27:48;;;;;;;12.05;9.55;;;;;;;21.03;100.00;101423.47;6006975;23;20084;-71
2022/09/11 11:30:18;;;;;;;11.88;10.65;;;;;;;20.72;100.00;101447.38;6020996;23;20018;-71